Time;durP1;ratioP1;P1;durP2;ratioP2;P2;SDS_P1;SDS_P2;PMS_P1;PMS_P2;Temp;Humidity;BMP_temperature;BMP_pressure;BME280_temperature;BME280_humidity;BME280_pressure;Samples;Min_cycle;Max_cycle;Signal;HPM_P1;HPM_P2
2022/02/14 00:02:26;;;;;;;;;34.25;29.00;;;;;;;;5020310;28;51120;-53
2022/02/14 00:05:15;;;;;;;;;29.75;28.75;;;;;;;;5021241;28;51529;-53
2022/02/14 00:08:08;;;;;;;;;39.25;29.00;;;;;;;;5020717;28;51032;-51
2022/02/14 00:10:53;;;;;;;;;35.00;30.50;;;;;;;;5017876;28;51077;-49
2022/02/14 00:13:37;;;;;;;;;40.00;31.75;;;;;;;;5000493;28;51081;-49
2022/02/14 00:16:22;;;;;;;;;38.50;28.75;;;;;;;;5000859;28;51168;-52
2022/02/14 00:19:08;;;;;;;;;37.75;30.00;;;;;;;;5013196;28;51081;-52
2022/02/14 00:21:53;;;;;;;;;34.25;27.25;;;;;;;;5001365;28;51162;-51
2022/02/14 00:24:40;;;;;;;;;34.50;30.00;;;;;;;;5003681;28;51164;-51
2022/02/14 00:27:26;;;;;;;;;36.25;30.00;;;;;;;;5015391;28;51224;-50
2022/02/14 00:30:14;;;;;;;;;32.00;29.00;;;;;;;;5015548;28;51192;-51
2022/02/14 00:32:59;;;;;;;;;37.00;30.25;;;;;;;;5009898;28;51154;-52
2022/02/14 00:35:45;;;;;;;;;34.00;27.75;;;;;;;;5015279;28;51191;-53
2022/02/14 00:38:43;;;;;;;;;38.25;30.00;;;;;;;;5014433;28;51126;-50
2022/02/14 00:41:33;;;;;;;;;31.25;29.75;;;;;;;;5015311;28;51188;-50
2022/02/14 00:44:29;;;;;;;;;36.00;30.00;;;;;;;;5019632;28;51203;-50
2022/02/14 00:47:14;;;;;;;;;28.75;24.25;;;;;;;;5012079;28;51171;-50
2022/02/14 00:50:00;;;;;;;;;38.50;30.50;;;;;;;;5017736;28;51144;-50
2022/02/14 00:52:54;;;;;;;;;39.00;30.00;;;;;;;;5019208;28;51412;-51
2022/02/14 00:55:49;;;;;;;;;40.50;32.00;;;;;;;;5010732;28;51511;-50
2022/02/14 00:58:34;;;;;;;;;29.75;26.75;;;;;;;;5016473;28;51099;-50
2022/02/14 01:01:19;;;;;;;;;26.25;22.75;;;;;;;;5016554;28;50978;-51
2022/02/14 01:04:14;;;;;;;;;33.25;28.50;;;;;;;;5012390;28;51089;-50
2022/02/14 01:07:20;;;;;;;;;35.25;31.25;;;;;;;;5006888;28;51131;-52
2022/02/14 01:10:06;;;;;;;;;38.00;32.25;;;;;;;;5012012;28;51116;-52
2022/02/14 01:12:55;;;;;;;;;35.00;29.25;;;;;;;;5005564;28;51184;-50
2022/02/14 01:15:42;;;;;;;;;34.00;30.00;;;;;;;;5017924;28;51113;-51
2022/02/14 01:18:28;;;;;;;;;29.00;28.00;;;;;;;;5014745;28;51163;-51
2022/02/14 01:21:14;;;;;;;;;34.75;29.00;;;;;;;;5011526;28;51211;-52
2022/02/14 01:23:59;;;;;;;;;35.50;29.50;;;;;;;;5015464;28;51180;-51
2022/02/14 01:26:44;;;;;;;;;30.25;28.00;;;;;;;;5016582;28;51156;-48
2022/02/14 01:29:30;;;;;;;;;35.00;29.75;;;;;;;;5016598;28;51469;-50
2022/02/14 01:32:22;;;;;;;;;38.50;30.75;;;;;;;;5016336;28;51098;-51
2022/02/14 01:35:09;;;;;;;;;32.50;27.00;;;;;;;;5006591;28;51498;-51
2022/02/14 01:37:54;;;;;;;;;36.50;29.25;;;;;;;;5016937;28;51100;-52
2022/02/14 01:40:41;;;;;;;;;38.00;31.50;;;;;;;;5018642;28;51120;-50
2022/02/14 01:43:28;;;;;;;;;34.75;28.25;;;;;;;;5002898;28;51186;-50
2022/02/14 01:46:13;;;;;;;;;27.25;24.00;;;;;;;;5015699;28;51037;-50
2022/02/14 01:48:59;;;;;;;;;36.75;29.75;;;;;;;;5001903;28;51119;-53
2022/02/14 01:51:43;;;;;;;;;37.75;30.75;;;;;;;;5011572;28;51226;-51
2022/02/14 01:54:28;;;;;;;;;32.75;26.50;;;;;;;;5018442;28;51806;-50
2022/02/14 01:57:13;;;;;;;;;32.00;30.50;;;;;;;;5017628;28;51162;-53
2022/02/14 02:00:08;;;;;;;;;37.50;30.00;;;;;;;;5017247;28;51061;-50
2022/02/14 02:02:55;;;;;;;;;26.25;21.00;;;;;;;;5014802;28;51180;-49
2022/02/14 02:05:41;;;;;;;;;37.25;30.25;;;;;;;;5010099;28;51077;-51
2022/02/14 02:08:26;;;;;;;;;34.75;28.00;;;;;;;;5013450;28;51089;-49
2022/02/14 02:14:20;;;;;;;;;35.50;29.50;;;;;;;;5011566;28;51096;-52
2022/02/14 02:17:04;;;;;;;;;34.00;28.75;;;;;;;;5018576;28;51282;-50
2022/02/14 02:19:49;;;;;;;;;40.25;30.00;;;;;;;;5012518;28;51508;-51
2022/02/14 02:22:34;;;;;;;;;35.50;29.00;;;;;;;;5013426;28;51076;-50
2022/02/14 02:25:33;;;;;;;;;39.00;30.25;;;;;;;;5014309;28;51611;-52
2022/02/14 02:28:18;;;;;;;;;31.25;29.75;;;;;;;;5019069;28;51199;-51
2022/02/14 02:31:07;;;;;;;;;36.75;28.75;;;;;;;;5019663;28;51128;-49
2022/02/14 02:33:54;;;;;;;;;40.75;30.25;;;;;;;;5019418;28;51217;-51
2022/02/14 02:36:57;;;;;;;;;31.00;27.00;;;;;;;;4994229;28;51051;-49
2022/02/14 02:39:42;;;;;;;;;31.25;28.75;;;;;;;;5021144;28;51157;-52
2022/02/14 02:42:36;;;;;;;;;29.75;27.25;;;;;;;;5020653;28;51158;-50
2022/02/14 02:45:23;;;;;;;;;33.25;25.25;;;;;;;;5018446;28;51113;-51
2022/02/14 02:48:08;;;;;;;;;34.50;30.50;;;;;;;;5015632;28;51085;-52
2022/02/14 02:51:03;;;;;;;;;32.25;29.50;;;;;;;;5018164;28;51648;-52
2022/02/14 02:53:50;;;;;;;;;37.50;29.25;;;;;;;;5016566;28;51176;-49
2022/02/14 02:56:39;;;;;;;;;29.25;28.25;;;;;;;;5015607;28;50989;-52
2022/02/14 02:59:26;;;;;;;;;37.00;28.25;;;;;;;;5006517;28;51057;-49
2022/02/14 03:02:11;;;;;;;;;34.25;30.00;;;;;;;;5019288;28;51731;-52
2022/02/14 03:04:58;;;;;;;;;35.00;28.50;;;;;;;;5022148;28;51071;-49
2022/02/14 03:07:43;;;;;;;;;31.75;29.00;;;;;;;;5021792;28;51018;-51
2022/02/14 03:10:28;;;;;;;;;34.75;30.25;;;;;;;;5007161;28;51353;-48
2022/02/14 03:13:19;;;;;;;;;36.25;30.25;;;;;;;;5016422;28;51106;-51
2022/02/14 03:16:03;;;;;;;;;38.50;29.50;;;;;;;;5018115;28;51188;-54
2022/02/14 03:18:49;;;;;;;;;36.25;28.25;;;;;;;;5020869;28;51029;-50
2022/02/14 03:21:37;;;;;;;;;33.75;29.50;;;;;;;;5017265;28;51216;-50
2022/02/14 03:24:22;;;;;;;;;34.25;31.00;;;;;;;;5018535;28;51124;-51
2022/02/14 03:27:07;;;;;;;;;37.50;29.00;;;;;;;;5018706;28;51625;-51
2022/02/14 03:29:52;;;;;;;;;38.75;30.25;;;;;;;;5009545;28;51334;-52
2022/02/14 03:32:37;;;;;;;;;35.25;31.00;;;;;;;;5016326;28;51083;-52
2022/02/14 03:35:25;;;;;;;;;35.50;30.25;;;;;;;;5017942;28;51262;-52
2022/02/14 03:38:11;;;;;;;;;38.00;30.50;;;;;;;;5017519;28;51146;-52
2022/02/14 03:40:57;;;;;;;;;40.75;31.00;;;;;;;;5019151;28;51263;-51
2022/02/14 03:43:42;;;;;;;;;36.75;29.75;;;;;;;;5020696;28;51144;-50
2022/02/14 03:46:31;;;;;;;;;30.50;27.50;;;;;;;;5019443;28;51227;-50
2022/02/14 03:49:16;;;;;;;;;39.75;30.00;;;;;;;;5019453;28;51112;-50
2022/02/14 03:52:01;;;;;;;;;35.50;29.25;;;;;;;;5014935;28;51169;-50
2022/02/14 03:54:46;;;;;;;;;42.25;31.50;;;;;;;;5015481;28;51215;-51
2022/02/14 03:57:34;;;;;;;;;33.50;29.25;;;;;;;;5018081;28;51099;-51
2022/02/14 04:00:24;;;;;;;;;39.50;33.00;;;;;;;;5017272;28;51531;-52
2022/02/14 04:03:08;;;;;;;;;29.75;27.75;;;;;;;;5000134;28;51214;-49
2022/02/14 04:05:57;;;;;;;;;33.00;29.50;;;;;;;;5016844;28;51647;-52
2022/02/14 04:08:42;;;;;;;;;35.75;30.50;;;;;;;;5010637;28;51279;-51
2022/02/14 04:11:28;;;;;;;;;35.25;29.00;;;;;;;;5001246;28;51179;-52
2022/02/14 04:14:22;;;;;;;;;36.00;31.00;;;;;;;;5000802;28;51061;-52
2022/02/14 04:17:06;;;;;;;;;34.25;27.50;;;;;;;;5004514;28;51822;-52
2022/02/14 04:19:56;;;;;;;;;39.75;31.50;;;;;;;;5020189;28;51069;-52
2022/02/14 04:22:42;;;;;;;;;34.25;28.50;;;;;;;;5020621;28;51072;-49
2022/02/14 04:25:27;;;;;;;;;30.25;22.25;;;;;;;;5019828;28;51416;-51
2022/02/14 04:28:11;;;;;;;;;37.25;29.25;;;;;;;;5011647;28;51196;-50
2022/02/14 04:30:57;;;;;;;;;42.25;30.25;;;;;;;;5008530;28;51586;-51
2022/02/14 04:33:44;;;;;;;;;41.50;31.00;;;;;;;;5004404;28;51084;-51
2022/02/14 04:36:28;;;;;;;;;32.00;27.50;;;;;;;;5019962;28;51017;-48
2022/02/14 04:39:13;;;;;;;;;39.00;32.00;;;;;;;;5001713;28;51113;-51
2022/02/14 04:41:59;;;;;;;;;40.50;33.75;;;;;;;;4999523;28;51525;-51
2022/02/14 04:44:49;;;;;;;;;37.75;31.00;;;;;;;;5010239;28;51046;-50
2022/02/14 04:47:33;;;;;;;;;40.25;32.50;;;;;;;;5000451;28;51125;-50
2022/02/14 04:50:19;;;;;;;;;26.75;25.00;;;;;;;;4999494;28;51342;-53
2022/02/14 04:53:09;;;;;;;;;40.75;31.00;;;;;;;;5000010;28;51300;-51
2022/02/14 04:55:55;;;;;;;;;38.25;30.00;;;;;;;;5005724;28;51507;-50
2022/02/14 04:58:39;;;;;;;;;45.50;33.00;;;;;;;;5018103;28;51140;-52
2022/02/14 05:01:44;;;;;;;;;41.50;32.75;;;;;;;;5010209;28;51520;-51
2022/02/14 05:04:28;;;;;;;;;39.75;32.00;;;;;;;;4998589;28;51132;-51
2022/02/14 05:07:37;;;;;;;;;40.00;32.00;;;;;;;;5004492;28;51731;-50
2022/02/14 05:10:28;;;;;;;;;42.25;32.50;;;;;;;;4999587;28;51089;-52
2022/02/14 05:13:13;;;;;;;;;40.00;32.50;;;;;;;;5011862;28;51056;-50
2022/02/14 05:16:24;;;;;;;;;41.00;31.25;;;;;;;;4999303;28;51358;-50
2022/02/14 05:19:09;;;;;;;;;40.75;32.75;;;;;;;;5007263;28;51112;-49
2022/02/14 05:21:54;;;;;;;;;44.00;33.50;;;;;;;;5002375;28;51202;-52
2022/02/14 05:24:38;;;;;;;;;40.50;32.25;;;;;;;;5019448;28;51078;-50
2022/02/14 05:27:24;;;;;;;;;48.00;36.25;;;;;;;;5018504;28;51566;-49
2022/02/14 05:30:10;;;;;;;;;47.75;34.50;;;;;;;;5000678;28;51601;-51
2022/02/14 05:33:17;;;;;;;;;47.75;35.75;;;;;;;;5001659;28;51680;-53
2022/02/14 05:36:02;;;;;;;;;50.25;39.50;;;;;;;;5000427;28;51221;-49
2022/02/14 05:38:58;;;;;;;;;49.25;39.50;;;;;;;;5006917;28;51482;-52
2022/02/14 05:41:42;;;;;;;;;50.25;38.50;;;;;;;;5018898;28;51041;-52
2022/02/14 05:44:29;;;;;;;;;51.25;38.50;;;;;;;;5018720;28;51367;-52
2022/02/14 05:47:14;;;;;;;;;52.25;40.25;;;;;;;;5018893;28;51190;-49
2022/02/14 05:50:09;;;;;;;;;51.75;40.50;;;;;;;;5012677;28;51452;-51
2022/02/14 05:52:53;;;;;;;;;58.25;43.75;;;;;;;;5003464;28;51001;-50
2022/02/14 05:55:41;;;;;;;;;56.50;45.25;;;;;;;;5018595;28;51107;-50
2022/02/14 05:58:28;;;;;;;;;55.00;44.00;;;;;;;;5018217;28;51183;-49
2022/02/14 06:01:15;;;;;;;;;57.50;44.00;;;;;;;;5009612;28;51501;-49
2022/02/14 06:04:04;;;;;;;;;61.75;48.00;;;;;;;;5012019;28;51225;-48
2022/02/14 06:06:49;;;;;;;;;61.50;46.25;;;;;;;;5018353;28;51456;-49
2022/02/14 06:09:40;;;;;;;;;60.00;46.50;;;;;;;;5016684;28;51110;-50
2022/02/14 06:12:46;;;;;;;;;56.00;45.75;;;;;;;;5010083;28;51617;-51
2022/02/14 06:15:51;;;;;;;;;58.75;45.50;;;;;;;;5018717;28;51116;-52
2022/02/14 06:18:38;;;;;;;;;67.25;52.00;;;;;;;;5018363;28;51086;-49
2022/02/14 06:21:22;;;;;;;;;57.00;46.25;;;;;;;;4998689;28;51105;-51
2022/02/14 06:24:11;;;;;;;;;65.25;50.00;;;;;;;;4999684;28;51246;-51
2022/02/14 06:26:57;;;;;;;;;68.00;52.25;;;;;;;;5000950;28;51272;-53
2022/02/14 06:29:41;;;;;;;;;68.00;55.25;;;;;;;;5013151;28;51114;-52
2022/02/14 06:32:27;;;;;;;;;77.50;63.75;;;;;;;;5016144;28;51587;-50
2022/02/14 06:35:23;;;;;;;;;70.25;57.00;;;;;;;;5011096;28;51318;-51
2022/02/14 06:38:09;;;;;;;;;85.75;73.00;;;;;;;;5017605;28;51164;-50
2022/02/14 06:40:55;;;;;;;;;77.75;65.50;;;;;;;;5016985;28;51531;-51
2022/02/14 06:43:42;;;;;;;;;80.00;65.75;;;;;;;;5010882;28;51571;-52
2022/02/14 06:46:28;;;;;;;;;77.25;69.00;;;;;;;;4998607;28;51299;-52
2022/02/14 06:49:15;;;;;;;;;74.50;64.25;;;;;;;;4998362;28;51184;-53
2022/02/14 06:52:03;;;;;;;;;73.75;61.75;;;;;;;;5005803;28;51042;-51
2022/02/14 06:54:48;;;;;;;;;78.50;70.00;;;;;;;;5001884;28;51197;-52
2022/02/14 06:57:43;;;;;;;;;78.00;68.75;;;;;;;;4998516;28;51269;-52
2022/02/14 07:00:27;;;;;;;;;76.00;66.00;;;;;;;;5015091;28;51317;-52
2022/02/14 07:03:12;;;;;;;;;80.00;68.75;;;;;;;;5015042;28;51069;-52
2022/02/14 07:05:59;;;;;;;;;75.25;62.25;;;;;;;;5002803;28;51137;-52
2022/02/14 07:08:46;;;;;;;;;77.75;63.50;;;;;;;;5001659;28;51164;-52
2022/02/14 07:11:52;;;;;;;;;75.75;63.75;;;;;;;;5005257;28;51132;-50
2022/02/14 07:14:43;;;;;;;;;82.25;68.00;;;;;;;;5009103;28;51507;-52
2022/02/14 07:17:32;;;;;;;;;75.75;64.25;;;;;;;;5003718;28;51097;-50
2022/02/14 07:20:19;;;;;;;;;69.50;55.00;;;;;;;;5008998;28;51069;-52
2022/02/14 07:23:05;;;;;;;;;68.75;51.00;;;;;;;;5017617;28;51148;-50
2022/02/14 07:25:49;;;;;;;;;63.00;49.25;;;;;;;;5016776;28;51069;-53
2022/02/14 07:28:40;;;;;;;;;61.50;45.50;;;;;;;;5019023;28;51219;-53
2022/02/14 07:31:25;;;;;;;;;63.25;48.50;;;;;;;;5012725;28;51259;-51
2022/02/14 07:34:11;;;;;;;;;67.00;51.25;;;;;;;;5014830;28;51469;-49
2022/02/14 07:37:05;;;;;;;;;67.00;51.00;;;;;;;;5014667;28;51162;-51
2022/02/14 07:39:50;;;;;;;;;65.50;50.50;;;;;;;;5018377;28;51624;-49
2022/02/14 07:42:34;;;;;;;;;53.25;42.25;;;;;;;;5016319;28;51219;-53
2022/02/14 07:45:23;;;;;;;;;49.00;41.00;;;;;;;;5015403;28;51156;-53
2022/02/14 07:48:18;;;;;;;;;56.25;43.00;;;;;;;;5017882;28;51556;-52
2022/02/14 07:51:03;;;;;;;;;52.25;40.50;;;;;;;;5016923;28;51177;-51
2022/02/14 07:53:48;;;;;;;;;48.75;38.25;;;;;;;;5016681;28;51199;-48
2022/02/14 07:56:33;;;;;;;;;55.75;41.75;;;;;;;;5017497;28;51096;-51
2022/02/14 07:59:28;;;;;;;;;51.00;39.00;;;;;;;;5010195;28;51173;-52
2022/02/14 08:02:16;;;;;;;;;45.75;36.75;;;;;;;;5011503;28;51044;-53
2022/02/14 08:05:06;;;;;;;;;50.00;38.75;;;;;;;;5012536;28;51513;-52
2022/02/14 08:07:52;;;;;;;;;46.00;36.75;;;;;;;;5015108;28;52674;-51
2022/02/14 08:10:39;;;;;;;;;48.75;36.25;;;;;;;;5015997;28;51184;-52
2022/02/14 08:13:25;;;;;;;;;44.25;35.25;;;;;;;;5015445;28;51446;-49
2022/02/14 08:16:09;;;;;;;;;41.75;34.00;;;;;;;;5016599;28;51172;-51
2022/02/14 08:18:54;;;;;;;;;39.00;33.00;;;;;;;;5015811;28;51241;-51
2022/02/14 08:21:46;;;;;;;;;41.50;35.00;;;;;;;;5010648;28;51188;-53
2022/02/14 08:24:31;;;;;;;;;41.25;33.25;;;;;;;;5014195;28;51152;-50
2022/02/14 08:27:18;;;;;;;;;38.75;33.25;;;;;;;;5012391;28;51204;-50
2022/02/14 08:30:02;;;;;;;;;42.25;33.50;;;;;;;;5017051;28;51591;-51
2022/02/14 08:32:46;;;;;;;;;36.00;32.25;;;;;;;;5015320;28;51256;-48
2022/02/14 08:35:33;;;;;;;;;37.50;30.75;;;;;;;;5010716;28;51257;-52
2022/02/14 08:38:19;;;;;;;;;41.25;33.00;;;;;;;;5012134;28;51137;-51
2022/02/14 08:41:05;;;;;;;;;38.25;30.75;;;;;;;;5014160;28;51062;-50
2022/02/14 08:43:52;;;;;;;;;35.00;29.50;;;;;;;;4997824;28;51153;-52
2022/02/14 08:46:41;;;;;;;;;34.00;29.50;;;;;;;;5016347;28;51264;-53
2022/02/14 08:49:28;;;;;;;;;34.25;26.50;;;;;;;;5015922;28;51554;-50
2022/02/14 08:52:27;;;;;;;;;44.25;33.25;;;;;;;;5010552;28;51730;-52
2022/02/14 08:55:13;;;;;;;;;32.25;28.75;;;;;;;;5012815;28;51666;-49
2022/02/14 08:57:58;;;;;;;;;30.75;28.75;;;;;;;;5012089;28;51374;-52
2022/02/14 09:00:51;;;;;;;;;29.75;28.00;;;;;;;;5009526;28;51157;-50
2022/02/14 09:03:36;;;;;;;;;33.50;29.25;;;;;;;;5014837;28;51483;-51
2022/02/14 09:06:21;;;;;;;;;33.50;27.75;;;;;;;;5008311;28;51102;-50
2022/02/14 09:09:06;;;;;;;;;24.25;19.50;;;;;;;;5011974;28;51295;-53
2022/02/14 09:11:57;;;;;;;;;33.50;26.00;;;;;;;;5010034;28;51127;-52
2022/02/14 09:14:50;;;;;;;;;32.50;25.50;;;;;;;;5013002;28;51442;-52
2022/02/14 09:17:41;;;;;;;;;28.75;27.25;;;;;;;;5015507;28;51197;-52
2022/02/14 09:20:25;;;;;;;;;33.75;27.75;;;;;;;;5014467;28;51655;-52
2022/02/14 09:23:13;;;;;;;;;34.25;27.75;;;;;;;;5010220;28;51054;-58
2022/02/14 09:25:59;;;;;;;;;33.25;27.75;;;;;;;;5012519;28;51222;-57
2022/02/14 09:28:49;;;;;;;;;35.50;28.00;;;;;;;;5013642;28;51382;-56
2022/02/14 09:31:36;;;;;;;;;33.00;29.25;;;;;;;;5014760;28;51297;-57
2022/02/14 09:34:21;;;;;;;;;27.00;26.00;;;;;;;;4997650;28;51200;-56
2022/02/14 09:37:07;;;;;;;;;38.00;31.50;;;;;;;;5015150;28;51056;-56
2022/02/14 09:39:51;;;;;;;;;33.00;29.00;;;;;;;;5010820;28;51271;-57
2022/02/14 09:42:36;;;;;;;;;32.50;27.25;;;;;;;;5013847;28;51277;-56
2022/02/14 09:45:22;;;;;;;;;33.75;30.75;;;;;;;;5007579;28;51807;-56
2022/02/14 09:48:09;;;;;;;;;34.00;29.75;;;;;;;;5011048;28;51081;-58
2022/02/14 09:51:03;;;;;;;;;42.00;32.25;;;;;;;;5012046;28;51093;-57
2022/02/14 09:53:48;;;;;;;;;32.00;29.50;;;;;;;;5010476;28;51345;-57
2022/02/14 09:56:35;;;;;;;;;34.25;27.25;;;;;;;;5013760;28;51710;-56
2022/02/14 09:59:21;;;;;;;;;31.25;27.50;;;;;;;;5009587;28;51270;-59
2022/02/14 10:02:19;;;;;;;;;33.50;27.75;;;;;;;;5015977;28;51337;-56
2022/02/14 10:05:13;;;;;;;;;27.00;25.00;;;;;;;;5015111;28;51821;-57
2022/02/14 10:08:00;;;;;;;;;33.50;26.50;;;;;;;;5016514;28;51093;-56
2022/02/14 10:10:45;;;;;;;;;32.25;27.25;;;;;;;;5006991;28;51900;-57
2022/02/14 10:13:51;;;;;;;;;28.25;26.25;;;;;;;;5007784;28;51199;-57
2022/02/14 10:16:56;;;;;;;;;34.75;30.25;;;;;;;;5016187;28;51207;-57
2022/02/14 10:19:53;;;;;;;;;32.00;26.00;;;;;;;;4999087;28;51228;-55
2022/02/14 10:22:56;;;;;;;;;33.50;26.25;;;;;;;;5004078;28;51565;-56
2022/02/14 10:25:44;;;;;;;;;33.50;27.00;;;;;;;;5003504;28;51203;-55
2022/02/14 10:28:35;;;;;;;;;34.25;29.50;;;;;;;;5011828;28;51526;-56
2022/02/14 10:31:21;;;;;;;;;34.25;29.00;;;;;;;;5009298;28;51128;-54
2022/02/14 10:34:07;;;;;;;;;30.25;27.75;;;;;;;;5012099;28;51078;-55
2022/02/14 10:36:56;;;;;;;;;30.25;27.50;;;;;;;;5010740;28;51709;-56
2022/02/14 10:39:44;;;;;;;;;36.50;29.25;;;;;;;;5015407;28;51096;-57
2022/02/14 10:42:33;;;;;;;;;38.00;30.75;;;;;;;;4990608;28;51177;-55
2022/02/14 10:45:26;;;;;;;;;41.75;31.25;;;;;;;;5017077;28;51544;-56
2022/02/14 10:48:14;;;;;;;;;28.50;25.50;;;;;;;;5017825;28;51533;-56
2022/02/14 10:51:04;;;;;;;;;34.25;30.75;;;;;;;;5014630;28;51127;-55
2022/02/14 10:53:49;;;;;;;;;35.00;27.00;;;;;;;;5014121;28;51234;-57
2022/02/14 10:56:40;;;;;;;;;33.75;30.00;;;;;;;;5012220;28;51968;-56
2022/02/14 10:59:31;;;;;;;;;33.00;28.75;;;;;;;;5016105;28;51167;-55
2022/02/14 11:02:17;;;;;;;;;33.00;28.75;;;;;;;;5017682;28;51176;-54
2022/02/14 11:05:02;;;;;;;;;29.00;25.00;;;;;;;;5012437;28;51223;-57
2022/02/14 11:07:47;;;;;;;;;39.25;29.25;;;;;;;;5017766;28;51537;-55
2022/02/14 11:10:42;;;;;;;;;36.75;27.75;;;;;;;;5003547;28;51448;-55
2022/02/14 11:13:30;;;;;;;;;31.50;23.75;;;;;;;;5018105;28;51585;-56
2022/02/14 11:16:16;;;;;;;;;34.00;28.75;;;;;;;;5003862;28;51251;-55
2022/02/14 11:19:02;;;;;;;;;29.25;27.50;;;;;;;;5018423;28;51289;-56
2022/02/14 11:21:46;;;;;;;;;41.75;32.00;;;;;;;;5019759;28;51508;-56
2022/02/14 11:24:41;;;;;;;;;67.25;57.50;;;;;;;;5017476;28;51166;-55
2022/02/14 11:27:31;;;;;;;;;37.25;28.75;;;;;;;;5016322;28;51120;-55
2022/02/14 11:30:17;;;;;;;;;32.75;26.50;;;;;;;;5012408;28;51099;-55
2022/02/14 11:33:19;;;;;;;;;27.50;24.00;;;;;;;;5014549;28;51236;-55
2022/02/14 11:36:08;;;;;;;;;34.25;27.50;;;;;;;;5015726;28;51135;-57
2022/02/14 11:38:54;;;;;;;;;36.25;28.00;;;;;;;;5013373;28;51164;-57
2022/02/14 11:41:45;;;;;;;;;34.50;28.00;;;;;;;;5014890;28;51211;-58
2022/02/14 11:44:29;;;;;;;;;28.75;26.75;;;;;;;;5006732;28;51607;-57
2022/02/14 11:47:16;;;;;;;;;30.25;28.00;;;;;;;;5019911;28;50998;-58
2022/02/14 11:50:02;;;;;;;;;38.25;27.00;;;;;;;;5006283;28;50999;-55
2022/02/14 11:52:49;;;;;;;;;36.75;32.00;;;;;;;;5018286;28;51519;-57
2022/02/14 11:55:34;;;;;;;;;32.50;30.25;;;;;;;;5005343;28;51160;-56
2022/02/14 11:58:37;;;;;;;;;35.25;30.25;;;;;;;;5010724;28;51186;-57
2022/02/14 12:01:21;;;;;;;;;30.50;27.75;;;;;;;;5011944;28;51188;-59
2022/02/14 12:04:24;;;;;;;;;32.50;28.75;;;;;;;;5011966;28;51512;-56
2022/02/14 12:07:11;;;;;;;;;31.00;28.75;;;;;;;;5013570;28;51164;-57
2022/02/14 12:09:55;;;;;;;;;34.75;27.50;;;;;;;;5014585;28;51155;-58
2022/02/14 12:12:45;;;;;;;;;37.00;29.00;;;;;;;;5017047;28;51498;-57
2022/02/14 12:21:31;;;;;;;;;29.00;24.00;;;;;;;;5018543;28;51154;-56
2022/02/14 12:24:17;;;;;;;;;31.25;27.50;;;;;;;;5011044;28;51143;-55
2022/02/14 12:27:01;;;;;;;;;33.25;27.75;;;;;;;;5007793;28;51638;-56
2022/02/14 12:29:45;;;;;;;;;36.00;28.50;;;;;;;;5016248;28;51041;-55
2022/02/14 12:32:30;;;;;;;;;29.25;28.00;;;;;;;;5011736;28;51039;-55
2022/02/14 12:35:27;;;;;;;;;26.25;26.00;;;;;;;;5016402;28;50951;-56
2022/02/14 12:38:12;;;;;;;;;26.25;22.75;;;;;;;;5011914;28;51165;-57
2022/02/14 12:40:57;;;;;;;;;34.50;24.50;;;;;;;;5015431;28;51268;-58
2022/02/14 12:43:43;;;;;;;;;25.25;22.50;;;;;;;;5016130;28;51175;-57
2022/02/14 12:46:30;;;;;;;;;24.75;23.25;;;;;;;;5015046;28;51199;-56
2022/02/14 12:49:15;;;;;;;;;27.25;25.50;;;;;;;;5014513;28;51190;-56
2022/02/14 12:52:10;;;;;;;;;33.75;27.00;;;;;;;;5015806;28;51476;-55
2022/02/14 12:54:55;;;;;;;;;32.25;27.75;;;;;;;;5010924;28;51133;-54
2022/02/14 12:57:45;;;;;;;;;27.50;23.75;;;;;;;;5015279;28;51237;-55
2022/02/14 13:00:33;;;;;;;;;29.75;24.25;;;;;;;;5012269;28;51073;-56
2022/02/14 13:03:18;;;;;;;;;27.00;24.25;;;;;;;;5009766;28;51389;-53
2022/02/14 13:06:02;;;;;;;;;27.75;22.25;;;;;;;;5011236;28;51140;-54
2022/02/14 13:08:52;;;;;;;;;31.25;26.25;;;;;;;;5011875;28;51148;-51
2022/02/14 13:11:40;;;;;;;;;27.00;24.50;;;;;;;;5009804;28;51164;-53
2022/02/14 13:14:44;;;;;;;;;29.25;26.75;;;;;;;;5018247;28;51132;-52
2022/02/14 13:17:29;;;;;;;;;25.00;23.25;;;;;;;;5010260;28;51472;-53
2022/02/14 13:20:13;;;;;;;;;38.75;29.25;;;;;;;;5009218;28;51360;-51
2022/02/14 13:22:59;;;;;;;;;25.25;21.75;;;;;;;;5013197;28;52449;-56
2022/02/14 13:25:51;;;;;;;;;30.50;27.75;;;;;;;;5001047;28;52867;-53
2022/02/14 13:28:40;;;;;;;;;33.00;25.00;;;;;;;;5013801;28;51429;-53
2022/02/14 13:31:27;;;;;;;;;31.75;25.50;;;;;;;;5007322;28;51163;-53
2022/02/14 13:34:12;;;;;;;;;32.00;27.25;;;;;;;;5001792;28;51709;-54
2022/02/14 13:36:59;;;;;;;;;29.50;23.50;;;;;;;;5017163;28;51148;-53
2022/02/14 13:39:44;;;;;;;;;30.25;26.50;;;;;;;;5018363;28;51100;-52
2022/02/14 13:42:28;;;;;;;;;35.25;28.25;;;;;;;;5018774;28;51053;-55
2022/02/14 13:45:13;;;;;;;;;37.50;28.00;;;;;;;;5008813;28;52105;-53
2022/02/14 13:48:16;;;;;;;;;25.25;25.25;;;;;;;;5015084;28;51178;-53
2022/02/14 13:51:01;;;;;;;;;28.75;24.75;;;;;;;;5009591;28;51120;-51
2022/02/14 13:53:53;;;;;;;;;24.50;21.50;;;;;;;;4983573;28;51113;-53
2022/02/14 13:56:40;;;;;;;;;29.50;25.50;;;;;;;;5002067;28;51145;-53
2022/02/14 13:59:28;;;;;;;;;32.75;28.50;;;;;;;;5015451;28;51555;-52
2022/02/14 14:02:15;;;;;;;;;30.50;27.25;;;;;;;;5016278;28;51525;-54
2022/02/14 14:05:15;;;;;;;;;33.00;28.75;;;;;;;;5002624;28;51453;-51
2022/02/14 14:08:00;;;;;;;;;31.75;27.50;;;;;;;;4997700;28;51062;-51
2022/02/14 14:10:46;;;;;;;;;29.75;21.25;;;;;;;;4998080;28;51091;-53
2022/02/14 14:13:41;;;;;;;;;27.00;22.25;;;;;;;;5003858;28;51428;-52
2022/02/14 14:16:25;;;;;;;;;31.25;28.75;;;;;;;;5018388;28;51105;-52
2022/02/14 14:19:09;;;;;;;;;32.75;27.00;;;;;;;;5009132;28;51527;-54
2022/02/14 14:21:54;;;;;;;;;30.25;27.50;;;;;;;;5004626;28;51133;-53
2022/02/14 14:24:38;;;;;;;;;22.50;22.50;;;;;;;;5007989;28;51092;-52
2022/02/14 14:27:23;;;;;;;;;34.25;28.75;;;;;;;;5015755;28;52611;-54
2022/02/14 14:30:08;;;;;;;;;31.50;25.75;;;;;;;;5006986;28;51195;-54
2022/02/14 14:32:54;;;;;;;;;35.50;24.25;;;;;;;;5014415;28;51271;-51
2022/02/14 14:35:40;;;;;;;;;27.50;23.25;;;;;;;;5013123;28;51177;-53
2022/02/14 14:38:25;;;;;;;;;28.00;24.00;;;;;;;;5012975;28;51299;-54
2022/02/14 14:41:12;;;;;;;;;33.00;29.00;;;;;;;;5012857;28;51151;-51
2022/02/14 14:43:57;;;;;;;;;36.75;31.00;;;;;;;;5012370;28;51268;-53
2022/02/14 14:46:42;;;;;;;;;38.00;31.25;;;;;;;;5009260;28;51201;-48
2022/02/14 14:49:27;;;;;;;;;32.25;28.25;;;;;;;;5014368;28;51646;-53
2022/02/14 14:52:11;;;;;;;;;33.50;29.75;;;;;;;;5008150;28;51297;-53
2022/02/14 14:54:56;;;;;;;;;42.75;34.00;;;;;;;;5010812;28;51162;-52
2022/02/14 14:57:41;;;;;;;;;44.00;33.50;;;;;;;;5011586;28;51112;-53
2022/02/14 15:00:26;;;;;;;;;40.00;31.50;;;;;;;;5009690;28;51721;-53
2022/02/14 15:03:10;;;;;;;;;45.50;34.00;;;;;;;;5008371;28;51592;-50
2022/02/14 15:05:54;;;;;;;;;42.25;34.00;;;;;;;;5013833;28;51092;-53
2022/02/14 15:08:39;;;;;;;;;49.50;39.25;;;;;;;;5012138;28;51072;-52
2022/02/14 15:11:24;;;;;;;;;43.50;34.00;;;;;;;;5011680;28;51184;-53
2022/02/14 15:14:09;;;;;;;;;38.50;32.25;;;;;;;;5009199;28;51145;-52
2022/02/14 15:16:55;;;;;;;;;48.50;36.25;;;;;;;;4999755;28;51121;-49
2022/02/14 15:19:41;;;;;;;;;38.75;31.75;;;;;;;;5018283;28;51114;-49
2022/02/14 15:22:26;;;;;;;;;37.50;32.50;;;;;;;;5001519;28;51105;-49
2022/02/14 15:25:11;;;;;;;;;44.00;33.50;;;;;;;;5016624;28;51679;-52
2022/02/14 15:27:55;;;;;;;;;39.25;30.50;;;;;;;;5021499;28;51137;-48
2022/02/14 15:30:39;;;;;;;;;31.75;26.50;;;;;;;;5009137;28;51187;-51
2022/02/14 15:33:24;;;;;;;;;44.50;34.75;;;;;;;;5001793;28;51633;-51
2022/02/14 15:36:09;;;;;;;;;43.00;32.50;;;;;;;;5016210;28;51100;-49
2022/02/14 15:38:53;;;;;;;;;46.00;33.75;;;;;;;;5006768;28;51821;-51
2022/02/14 15:41:38;;;;;;;;;41.25;32.00;;;;;;;;5001589;28;51341;-51
2022/02/14 15:44:25;;;;;;;;;39.50;32.75;;;;;;;;5016762;28;51128;-51
2022/02/14 15:47:10;;;;;;;;;44.75;34.25;;;;;;;;5021668;28;51118;-52
2022/02/14 15:49:55;;;;;;;;;47.75;36.75;;;;;;;;5008079;28;52198;-48
2022/02/14 15:52:43;;;;;;;;;44.75;33.50;;;;;;;;5019900;28;51118;-52
2022/02/14 15:55:27;;;;;;;;;45.75;35.50;;;;;;;;5011497;28;51192;-49
2022/02/14 15:58:14;;;;;;;;;35.25;27.50;;;;;;;;5020045;28;51119;-49
2022/02/14 16:00:58;;;;;;;;;43.00;31.50;;;;;;;;5020910;28;51167;-52
2022/02/14 16:03:42;;;;;;;;;34.50;29.25;;;;;;;;5021019;28;51523;-49
2022/02/14 16:06:28;;;;;;;;;45.00;36.25;;;;;;;;5018011;28;51411;-49
2022/02/14 16:09:15;;;;;;;;;37.50;30.50;;;;;;;;5001117;28;51023;-49
2022/02/14 16:11:59;;;;;;;;;39.00;30.50;;;;;;;;5015955;28;51125;-51
2022/02/14 16:14:44;;;;;;;;;32.50;28.75;;;;;;;;5019027;28;51048;-50
2022/02/14 16:17:28;;;;;;;;;39.50;29.50;;;;;;;;5020451;28;51188;-52
2022/02/14 16:20:16;;;;;;;;;35.00;29.50;;;;;;;;5018089;28;50965;-53
2022/02/14 16:23:00;;;;;;;;;30.75;24.50;;;;;;;;5015888;28;51529;-51
2022/02/14 16:25:45;;;;;;;;;32.75;27.25;;;;;;;;5000889;28;51029;-52